• Join FlightAware (Why Join?)
  • Login
  • US Flag 
03:14AM EST


 

Airport Tracker/Info


-or-


 

Live Flight TrackerFlight Track Log ✈ ASQ5745 ✈ 23-May-2013 ✈ KIAD - KALB

Flight Track Log - Related Links

Times and Time Zones

All times are in EDT time to prevent confusion due to time zone crossing. See the ASQ5745 flight status page for this flight to view local times or setup timezone preferences in your user account.

Time Position Orientation Groundspeed Altitude Reporting Facility
EDT Latitude Longitude Course Direction KTS MPH feet Rate Location/Type
08:34AM 38.9500 -77.5000 North 177 204 1,600  Level Potomac TRACON
08:35AM 39.0000 -77.5500 322° Northwest 232 267 3,200 2,160 Climbing Potomac TRACON
08:36AM 39.0667 -77.5833 339° North 282 325 5,800 2,400 Climbing Potomac TRACON
08:37AM 39.1333 -77.6000 349° North 294 338 7,900 2,400 Climbing Potomac TRACON
08:38AM 39.4282 -77.4500 North  Level FlightAware Approximate
08:38AM 39.2333 -77.5833 North 314 361 10,600  Level Potomac TRACON
08:39AM 39.5272 -77.4500 North  Level FlightAware Approximate
08:39AM 39.3000 -77.5667 11° North 348 400 11,500  Level Potomac TRACON
08:40AM 39.6160 -77.4500 North  Level FlightAware Approximate
08:40AM 39.3833 -77.5383 15° North 374 430 12,400  Level Washington Center
08:41AM 39.4881 -77.5061 13° North 411 473 14,400 1,320 Climbing Washington Center
08:42AM 39.5928 -77.4711 14° North 396 456 15,000 300 Climbing Washington Center
08:43AM 39.7117 -77.4689 North 404 465 15,000 240 Level Washington Center
08:44AM 39.8400 -77.4656 North 457 526 15,600 1,620 Climbing New York Center
08:45AM 39.9508 -77.4600 North 424 488 18,400 2,160 Climbing New York Center
08:46AM 40.0494 -77.4531 North 398 458 19,900 1,500 Climbing New York Center
08:47AM 40.1692 -77.4372 North 393 452 21,400 1,320 Climbing New York Center
08:48AM 40.2633 -77.3539 34° Northeast 383 441 22,600 900 Climbing New York Center
08:49AM 40.3469 -77.2747 36° Northeast 396 456 23,200 600 Climbing New York Center
08:50AM 40.4461 -77.1803 36° Northeast 410 472 23,900 660 Climbing New York Center
08:51AM 40.5333 -77.0656 45° Northeast 430 495 24,600 660 Climbing New York Center
08:52AM 40.6381 -76.9794 32° Northeast 436 502 25,300 660 Climbing New York Center
08:53AM 40.7561 -76.9161 22° Northeast 444 511 26,000 660 Climbing New York Center
08:54AM 40.8664 -76.8381 28° Northeast 444 511 26,700 480 Climbing New York Center
08:55AM 40.9581 -76.7117 46° Northeast 450 518 27,000 120 Climbing New York Center
08:56AM 41.0706 -76.6306 29° Northeast 455 524 27,000  Level New York Center
08:57AM 41.1961 -76.5781 17° North 455 524 27,000  Level New York Center
08:58AM 41.3217 -76.5225 18° North 461 531 27,000  Level New York Center
08:59AM 41.4450 -76.4694 18° North 461 531 27,000  Level New York Center
09:00AM 41.5667 -76.4106 20° North 466 536 27,000  Level New York Center
09:01AM 41.6900 -76.3542 19° North 466 536 27,000  Level New York Center
09:02AM 41.8114 -76.3003 18° North 460 529 27,000 -600 Level New York Center
09:04AM 42.0306 -76.1689 24° Northeast 476 548 25,400 -960 Descending Boston Center
09:05AM 42.0961 -76.0078 61° Northeast 460 529 24,500 -720 Descending Boston Center
09:06AM 42.1494 -75.8344 67° East 467 537 24,000 -300 Descending Boston Center
09:07AM 42.2025 -75.6633 67° East 479 551 24,000 -600 Level Boston Center
09:08AM 42.2553 -75.4867 68° East 489 563 22,800 -1,380 Descending Boston Center
09:09AM 42.3075 -75.3178 67° East 500 575 21,300 -1,500 Descending Boston Center
09:10AM 42.3556 -75.1514 69° East 482 555 19,900 -1,500 Descending Boston Center
09:11AM 42.3928 -74.9814 73° East 475 547 18,300 -1,680 Descending Boston Center
09:11AM 42.4050 -74.8078 84° East 447 514 16,700 -1,920 Descending Boston Center
09:12AM 42.4156 -74.6928 83° East 444 511 15,200 -1,920 Descending Boston Center
09:13AM 42.4289 -74.6483 68° East 459 528 14,700 -2,280 Descending Boston Center
09:13AM 42.4706 -74.5456 61° Northeast 444 511 12,900 -2,520 Descending Boston Center
09:14AM 42.4903 -74.4872 65° Northeast 440 506 12,200 -2,040 Descending Boston Center
09:14AM 42.5297 -74.3814 63° Northeast 415 478 10,700 -1,740 Descending Boston Center
09:15AM 42.5361 -74.3647 63° Northeast 413 475 10,500 -1,560 Descending Boston Center
09:15AM 42.5711 -74.2756 62° Northeast 335 386 9,300 -1,620 Descending Boston Center
09:16AM 42.5842 -74.2364 66° East 362 417 8,900 -1,500 Descending Boston Center
09:16AM 42.6125 -74.1667 61° Northeast 304 350 7,800 -1,440 Descending Boston Center
09:17AM 42.6211 -74.1444 62° Northeast 316 364 7,500 -1,500 Descending Boston Center
09:17AM 42.6575 -74.0661 58° Northeast 311 358 6,300 -1,500 Descending Boston Center
09:18AM 42.6683 -74.0525 43° Northeast 302 348 6,000 -1,500 Descending Boston Center
09:18AM 42.7169 -73.9886 44° Northeast 296 341 4,800 -1,320 Descending Boston Center
09:19AM 42.7319 -73.9750 34° Northeast 297 342 4,700 -360 Descending Boston Center